sim
Sign-in with your pilot id or email,
or register
Callsign
Passwort

Schedule Details

Flight Number: DLH2689
Departure: Sylt Airport (EDXW) at 16:10
Arrival: Munich Airport (EDDM) at 17:45
Route: Lufthansa Passenger Schedule. Enter filed route here before submitting Pirep.

Weather Information
Getting current METAR information for EDXW 260850Z 28005KT 250V310 9999 BKN033 15/10 Q0998
Getting current METAR information for EDDM 260850Z 26018KT 9999 -DZRA SCT020 BKN030 08/04 Q1000 TEMPO 26020G30KT

Schedule Frequency

Route Map